Time;durP1;ratioP1;P1;durP2;ratioP2;P2;SDS_P1;SDS_P2;PMS_P1;PMS_P2;Temp;Humidity;BMP_temperature;BMP_pressure;BME280_temperature;BME280_humidity;BME280_pressure;Samples;Min_cycle;Max_cycle;Signal;HPM_P1;HPM_P2
2022/12/01 00:01:10;;;;;;;102.55;47.75;;;6.20;99.90;;;;;;5092231;28;20044;-81
2022/12/01 00:03:36;;;;;;;104.03;47.63;;;6.40;99.90;;;;;;5075509;28;20060;-81
2022/12/01 00:06:19;;;;;;;107.50;47.67;;;6.20;99.90;;;;;;5075789;28;20404;-81
2022/12/01 00:11:33;;;;;;;106.40;47.70;;;6.40;99.90;;;;;;5093956;28;20281;-81
2022/12/01 00:14:00;;;;;;;106.83;46.03;;;6.60;99.90;;;;;;5093551;28;20753;-81
2022/12/01 00:16:25;;;;;;;104.70;45.40;;;6.40;99.90;;;;;;5075379;28;20326;-82
2022/12/01 00:18:52;;;;;;;104.47;46.17;;;;;;;;;;5075620;28;20344;-81
2022/12/01 00:21:20;;;;;;;118.65;50.42;;;6.20;99.90;;;;;;5092095;28;20395;-82
2022/12/01 00:23:48;;;;;;;109.60;46.17;;;6.20;99.90;;;;;;5092323;28;20040;-82
2022/12/01 00:26:15;;;;;;;110.70;48.67;;;6.20;99.90;;;;;;5092152;28;20293;-82
2022/12/01 00:28:41;;;;;;;104.53;48.60;;;6.30;99.90;;;;;;5109322;28;20298;-82
2022/12/01 00:31:08;;;;;;;116.65;49.95;;;6.20;99.90;;;;;;5093295;28;20298;-81
2022/12/01 00:33:33;;;;;;;99.13;46.60;;;6.30;99.90;;;;;;5092149;28;20052;-81
2022/12/01 00:36:00;;;;;;;108.23;48.90;;;6.20;99.90;;;;;;5093241;28;20288;-81
2022/12/01 00:38:26;;;;;;;102.27;47.17;;;6.20;99.90;;;;;;5092997;28;20044;-82
2022/12/01 00:40:52;;;;;;;114.13;49.58;;;6.20;99.90;;;;;;5093174;28;20634;-81
2022/12/01 00:43:17;;;;;;;102.70;48.17;;;6.30;99.90;;;;;;5075301;28;20093;-82
2022/12/01 00:45:43;;;;;;;110.83;49.83;;;6.20;99.90;;;;;;5093191;28;20079;-81
2022/12/01 00:48:09;;;;;;;102.67;47.87;;;6.20;99.90;;;;;;5092015;28;20059;-81
2022/12/01 00:50:35;;;;;;;104.83;47.90;;;;;;;;;;5092824;28;20044;-81
2022/12/01 00:53:00;;;;;;;95.30;46.17;;;6.20;99.90;;;;;;5091899;28;20059;-81
2022/12/01 00:55:26;;;;;;;99.23;44.97;;;6.30;99.90;;;;;;5091556;28;20372;-81
2022/12/01 00:57:52;;;;;;;89.83;44.73;;;6.30;99.90;;;;;;5091714;28;20051;-81
2022/12/01 01:00:18;;;;;;;100.33;44.57;;;6.20;99.90;;;;;;5091471;28;20529;-82
2022/12/01 01:02:43;;;;;;;102.23;48.93;;;6.20;99.90;;;;;;5074764;28;20139;-81
2022/12/01 01:05:09;;;;;;;101.57;45.97;;;6.30;99.90;;;;;;5091859;28;20369;-81
2022/12/01 01:07:35;;;;;;;104.03;47.37;;;6.20;99.90;;;;;;5092575;28;20381;-81
2022/12/01 01:10:01;;;;;;;103.10;45.80;;;6.20;99.90;;;;;;5092262;28;20084;-81
2022/12/01 01:12:27;;;;;;;95.77;46.03;;;6.30;99.90;;;;;;5096624;28;20769;-81
2022/12/01 01:14:53;;;;;;;97.67;45.67;;;6.20;99.90;;;;;;5078649;28;20048;-81
2022/12/01 01:17:19;;;;;;;97.57;43.73;;;6.30;99.90;;;;;;5096577;28;20281;-81
2022/12/01 01:19:45;;;;;;;100.50;46.60;;;6.40;99.90;;;;;;5095718;28;20047;-81
2022/12/01 01:22:11;;;;;;;90.60;45.47;;;6.40;99.90;;;;;;5095741;28;20050;-81
2022/12/01 01:24:37;;;;;;;98.07;46.73;;;6.20;99.90;;;;;;5096410;28;20073;-82
2022/12/01 01:27:04;;;;;;;101.70;46.47;;;6.40;99.90;;;;;;5095704;28;20278;-81
2022/12/01 01:29:31;;;;;;;91.17;45.47;;;;;;;;;;5095339;28;20306;-81
2022/12/01 01:31:56;;;;;;;98.67;45.87;;;6.30;99.90;;;;;;5095576;28;20355;-81
2022/12/01 01:34:22;;;;;;;104.43;46.20;;;6.30;99.90;;;;;;5095191;28;20285;-82
2022/12/01 01:36:48;;;;;;;101.20;46.60;;;6.30;99.90;;;;;;5095742;28;20062;-81
2022/12/01 01:39:14;;;;;;;104.53;48.53;;;6.30;99.90;;;;;;5096377;28;20052;-81
2022/12/01 01:41:39;;;;;;;88.63;45.67;;;6.30;99.90;;;;;;5096170;28;20048;-82
2022/12/01 01:44:42;;;;;;;96.70;45.83;;;6.20;99.90;;;;;;5096430;28;20097;-82
2022/12/01 01:47:08;;;;;;;93.77;44.27;;;6.20;99.90;;;;;;5096261;28;20091;-82
2022/12/01 01:49:34;;;;;;;91.20;44.70;;;6.20;99.90;;;;;;5096016;28;20294;-82
2022/12/01 01:52:03;;;;;;;96.90;44.80;;;6.20;99.90;;;;;;5095265;28;20301;-81
2022/12/01 01:54:38;;;;;;;106.63;48.80;;;6.20;99.90;;;;;;5095954;28;20460;-82
2022/12/01 01:57:07;;;;;;;108.00;50.17;;;6.20;99.90;;;;;;5095150;28;20040;-82
2022/12/01 01:59:42;;;;;;;106.18;48.97;;;6.20;99.90;;;;;;5095714;28;20043;-81
2022/12/01 02:02:09;;;;;;;;;;;6.20;99.90;;;;;;5096446;28;20480;-81
2022/12/01 02:04:39;;;;;;;96.93;46.30;;;6.10;99.90;;;;;;5095673;28;20383;-82
2022/12/01 02:07:06;;;;;;;108.00;47.27;;;6.10;99.90;;;;;;5095662;28;20496;-82
2022/12/01 02:09:31;;;;;;;103.07;45.10;;;6.10;99.90;;;;;;5094399;28;20386;-81
2022/12/01 02:12:25;;;;;;;102.00;47.23;;;6.10;99.90;;;;;;5095761;28;20043;-81
2022/12/01 02:15:08;;;;;;;115.83;50.00;;;6.10;99.90;;;;;;5095027;28;20117;-82
2022/12/01 02:17:53;;;;;;;104.70;46.67;;;6.10;99.90;;;;;;5094471;28;20331;-81
2022/12/01 02:20:36;;;;;;;108.70;48.47;;;6.10;99.90;;;;;;5094519;28;20321;-82
2022/12/01 02:23:36;;;;;;;117.77;48.60;;;6.10;99.90;;;;;;5093717;28;20290;-81
2022/12/01 02:26:16;;;;;;;102.97;48.17;;;6.10;99.90;;;;;;5095841;28;20266;-81
2022/12/01 02:28:47;;;;;;;105.10;49.83;;;6.20;99.90;;;;;;5095241;28;20501;-82
2022/12/01 02:31:18;;;;;;;107.10;49.67;;;6.10;99.90;;;;;;5094198;28;20637;-82
2022/12/01 02:33:53;;;;;;;105.53;47.23;;;;;;;;;;5095097;28;20135;-82
2022/12/01 02:36:35;;;;;;;112.72;50.17;;;6.50;99.90;;;;;;5095579;28;20305;-81
2022/12/01 02:39:30;;;;;;;109.43;50.67;;;6.20;99.90;;;;;;5111478;28;20116;-81
2022/12/01 02:42:01;;;;;;;101.05;48.47;;;;;;;;;;5095278;28;20044;-82
2022/12/01 02:44:36;;;;;;;107.03;49.43;;;6.10;99.90;;;;;;5093732;28;20048;-82
2022/12/01 02:47:13;;;;;;;107.55;49.22;;;6.00;99.90;;;;;;5095178;28;20734;-81
2022/12/01 02:49:48;;;;;;;116.28;49.90;;;6.10;99.90;;;;;;5093183;28;20056;-82
2022/12/01 02:52:15;;;;;;;116.47;50.72;;;6.10;99.90;;;;;;5111357;28;20114;-81
2022/12/01 02:54:44;;;;;;;110.60;51.80;;;6.10;99.90;;;;;;5093705;28;20052;-82
2022/12/01 02:57:14;;;;;;;108.50;50.45;;;6.10;99.90;;;;;;5094257;28;20360;-81
2022/12/01 02:59:42;;;;;;;105.20;49.27;;;6.10;99.90;;;;;;5094641;28;20088;-81
2022/12/01 03:02:41;;;;;;;97.05;48.42;;;6.10;99.90;;;;;;5095044;28;20278;-81
2022/12/01 03:05:38;;;;;;;118.88;52.17;;;6.10;99.90;;;;;;5094065;28;20052;-82
2022/12/01 03:08:31;;;;;;;105.43;50.15;;;6.10;99.90;;;;;;5093992;28;20054;-81
2022/12/01 03:10:58;;;;;;;112.72;49.95;;;6.10;99.90;;;;;;5094653;28;20044;-81
2022/12/01 03:13:47;;;;;;;109.67;49.93;;;6.10;99.90;;;;;;5093660;28;20066;-82
2022/12/01 03:16:24;;;;;;;99.63;48.65;;;6.10;99.90;;;;;;5094544;28;20282;-82
2022/12/01 03:19:05;;;;;;;109.75;51.78;;;6.10;99.90;;;;;;5094033;28;20492;-81
2022/12/01 03:21:34;;;;;;;119.35;53.60;;;6.10;99.90;;;;;;5093336;28;20163;-82
2022/12/01 03:24:13;;;;;;;115.05;50.10;;;6.10;99.90;;;;;;5094352;28;20044;-81
2022/12/01 03:26:43;;;;;;;103.57;48.40;;;6.10;99.90;;;;;;5094110;28;20040;-82
2022/12/01 03:29:19;;;;;;;98.90;49.03;;;6.10;99.90;;;;;;5093336;28;20047;-82
2022/12/01 03:31:51;;;;;;;113.30;50.47;;;6.10;99.90;;;;;;5094169;28;20091;-82
2022/12/01 03:34:28;;;;;;;103.93;48.55;;;6.10;99.90;;;;;;5094582;28;20104;-82
2022/12/01 03:37:03;;;;;;;109.70;51.25;;;6.10;99.90;;;;;;5093990;28;20489;-81
2022/12/01 03:39:32;;;;;;;110.35;52.40;;;6.10;99.90;;;;;;5093280;28;20048;-82
2022/12/01 03:42:21;;;;;;;103.90;49.53;;;6.10;99.90;;;;;;5093137;28;20051;-82
2022/12/01 03:44:52;;;;;;;118.87;51.73;;;6.10;99.90;;;;;;5072733;28;20297;-81
2022/12/01 03:47:31;;;;;;;91.90;47.20;;;6.10;99.90;;;;;;5093190;28;20377;-81
2022/12/01 03:49:58;;;;;;;105.35;46.25;;;6.10;99.90;;;;;;5092153;28;20048;-82
2022/12/01 03:52:49;;;;;;;104.77;46.97;;;6.10;99.90;;;;;;5093039;28;20052;-82
2022/12/01 03:55:28;;;;;;;103.40;49.33;;;6.10;99.90;;;;;;5093807;28;20762;-81
2022/12/01 03:58:11;;;;;;;102.28;48.88;;;6.20;99.90;;;;;;5093589;28;20052;-81
2022/12/01 04:00:37;;;;;;;83.53;43.63;;;6.20;99.90;;;;;;5093571;28;20044;-81
2022/12/01 04:03:04;;;;;;;94.13;46.45;;;6.20;99.90;;;;;;5093751;28;20364;-81
2022/12/01 04:05:32;;;;;;;100.63;49.03;;;6.20;99.90;;;;;;5092664;28;20043;-82
2022/12/01 04:07:58;;;;;;;93.72;45.42;;;6.30;99.90;;;;;;5093363;28;20485;-82
2022/12/01 04:10:24;;;;;;;95.57;45.38;;;6.20;99.90;;;;;;5092466;28;20040;-82
2022/12/01 04:12:50;;;;;;;95.20;45.97;;;6.30;99.90;;;;;;5075270;28;20093;-82
2022/12/01 04:15:16;;;;;;;97.33;46.87;;;6.20;99.90;;;;;;5093196;28;20051;-81
2022/12/01 04:17:43;;;;;;;109.38;49.15;;;6.20;99.90;;;;;;5091890;28;20614;-82
2022/12/01 04:20:11;;;;;;;112.38;49.85;;;6.20;99.90;;;;;;5093532;28;20148;-81
2022/12/01 04:22:37;;;;;;;113.22;49.75;;;6.10;99.90;;;;;;5093109;28;20054;-84
2022/12/01 04:25:05;;;;;;;110.57;50.03;;;6.10;99.90;;;;;;5093167;28;20127;-82
2022/12/01 04:27:31;;;;;;;121.78;51.80;;;6.00;99.90;;;;;;5093449;28;20055;-82
2022/12/01 04:29:57;;;;;;;108.95;47.97;;;6.00;99.90;;;;;;5093137;28;20047;-82
2022/12/01 04:32:23;;;;;;;117.90;52.90;;;6.10;99.90;;;;;;5092388;28;20040;-81
2022/12/01 04:34:49;;;;;;;116.47;50.70;;;;;;;;;;5075197;28;20051;-81
2022/12/01 04:37:16;;;;;;;119.75;52.15;;;6.00;99.90;;;;;;5093307;28;20488;-82
2022/12/01 04:39:41;;;;;;;104.00;49.17;;;6.00;99.90;;;;;;5075051;28;20051;-82
2022/12/01 04:42:08;;;;;;;105.77;49.20;;;6.00;99.90;;;;;;5092599;28;20622;-82
2022/12/01 04:44:34;;;;;;;120.32;52.78;;;6.10;99.90;;;;;;5092841;28;20048;-81
2022/12/01 04:46:59;;;;;;;119.43;51.90;;;6.10;99.90;;;;;;5092812;28;20051;-82
2022/12/01 04:49:25;;;;;;;122.37;52.77;;;6.10;99.90;;;;;;5091820;28;20060;-82
2022/12/01 04:51:51;;;;;;;117.00;48.53;;;6.10;99.90;;;;;;5092942;28;20059;-81
2022/12/01 04:54:17;;;;;;;105.47;49.93;;;6.10;99.90;;;;;;5093064;28;20040;-81
2022/12/01 04:56:44;;;;;;;114.75;49.25;;;6.10;99.90;;;;;;5092939;28;20484;-81
2022/12/01 04:59:10;;;;;;;124.88;50.40;;;6.10;99.90;;;;;;5093066;28;20051;-81
2022/12/01 05:01:36;;;;;;;107.57;48.00;;;6.10;99.90;;;;;;5093119;28;20486;-80
2022/12/01 05:04:01;;;;;;;126.67;51.57;;;6.10;99.90;;;;;;5092641;28;20451;-80
2022/12/01 05:06:28;;;;;;;117.80;53.40;;;6.20;99.90;;;;;;5093034;28;20130;-81
2022/12/01 05:08:56;;;;;;;110.83;48.80;;;6.20;99.90;;;;;;5092746;28;20363;-81
2022/12/01 05:11:23;;;;;;;104.43;48.93;;;6.10;99.90;;;;;;5092918;28;20298;-81
2022/12/01 05:13:49;;;;;;;110.95;50.85;;;6.20;99.90;;;;;;5092634;28;20282;-82
2022/12/01 05:16:16;;;;;;;106.28;48.53;;;6.20;99.90;;;;;;5092849;28;20082;-81
2022/12/01 05:18:45;;;;;;;100.83;47.73;;;6.20;99.90;;;;;;5091835;28;20048;-82
2022/12/01 05:21:11;;;;;;;100.20;47.17;;;6.20;99.90;;;;;;5092191;28;20289;-81
2022/12/01 05:23:38;;;;;;;104.27;47.57;;;6.30;99.90;;;;;;5092919;28;20282;-81
2022/12/01 05:26:06;;;;;;;102.95;48.78;;;6.20;99.90;;;;;;5092511;28;20595;-81
2022/12/01 05:28:32;;;;;;;118.07;50.10;;;6.20;99.90;;;;;;5091779;28;20044;-81
2022/12/01 05:30:58;;;;;;;117.40;52.38;;;6.30;99.90;;;;;;5092329;28;20326;-81
2022/12/01 05:33:26;;;;;;;100.93;48.37;;;6.30;99.90;;;;;;5092803;28;20461;-82
2022/12/01 05:35:53;;;;;;;102.05;46.95;;;6.20;99.90;;;;;;5092427;28;20052;-82
2022/12/01 05:38:19;;;;;;;102.63;49.37;;;6.20;99.90;;;;;;5092860;28;20126;-81
2022/12/01 05:40:52;;;;;;;100.53;47.37;;;6.20;99.90;;;;;;5092705;28;20270;-82
2022/12/01 05:43:19;;;;;;;95.50;46.60;;;6.30;99.90;;;;;;5092585;28;20277;-82
2022/12/01 05:45:45;;;;;;;91.13;47.00;;;6.30;99.90;;;;;;5074782;28;20294;-82
2022/12/01 05:48:11;;;;;;;95.40;46.20;;;6.30;99.90;;;;;;5091046;28;20290;-82
2022/12/01 05:50:38;;;;;;;96.13;46.83;;;6.40;99.90;;;;;;5091155;28;20047;-82
2022/12/01 05:53:04;;;;;;;109.97;50.57;;;6.40;99.90;;;;;;5091239;28;20048;-82
2022/12/01 05:55:34;;;;;;;104.00;50.10;;;6.30;99.90;;;;;;5092454;28;20289;-81
2022/12/01 05:58:00;;;;;;;95.00;48.17;;;6.30;99.90;;;;;;5076443;28;20294;-81
2022/12/01 06:00:26;;;;;;;99.47;47.77;;;6.30;99.90;;;;;;5096061;28;20278;-81
2022/12/01 06:02:52;;;;;;;103.03;49.40;;;6.30;99.90;;;;;;5095833;28;20274;-82
2022/12/01 06:05:18;;;;;;;108.87;47.43;;;6.30;99.90;;;;;;5095936;28;20140;-81
2022/12/01 06:07:43;;;;;;;104.83;47.90;;;6.30;99.90;;;;;;5078072;28;20135;-81
2022/12/01 06:10:10;;;;;;;94.73;47.57;;;6.30;99.90;;;;;;5094387;28;20048;-81
2022/12/01 06:12:36;;;;;;;103.17;48.13;;;6.30;99.90;;;;;;5094617;28;20127;-81
2022/12/01 06:15:03;;;;;;;102.90;48.50;;;6.30;99.90;;;;;;5095227;28;20788;-81
2022/12/01 06:17:29;;;;;;;113.10;50.37;;;6.30;99.90;;;;;;5078214;28;20052;-81
2022/12/01 06:19:55;;;;;;;105.40;48.80;;;6.30;99.90;;;;;;5095177;28;20684;-82
2022/12/01 06:22:21;;;;;;;103.10;47.77;;;6.30;99.90;;;;;;5077610;28;20281;-81
2022/12/01 06:24:46;;;;;;;111.50;49.80;;;6.30;99.90;;;;;;5077778;28;20075;-81
2022/12/01 06:27:12;;;;;;;107.27;49.27;;;6.30;99.90;;;;;;5095232;28;20048;-81
2022/12/01 06:29:38;;;;;;;110.47;50.30;;;6.30;99.90;;;;;;5094684;28;20104;-81
2022/12/01 06:32:03;;;;;;;106.43;48.10;;;6.30;99.90;;;;;;5095240;28;20116;-81
2022/12/01 06:34:29;;;;;;;102.17;48.63;;;6.30;99.90;;;;;;5095480;28;20043;-81
2022/12/01 06:36:55;;;;;;;114.13;48.97;;;6.20;99.90;;;;;;5093947;28;20055;-81
2022/12/01 06:39:21;;;;;;;124.90;52.37;;;6.10;99.90;;;;;;5095636;28;20059;-81
2022/12/01 06:41:46;;;;;;;95.60;46.77;;;6.10;99.90;;;;;;5095297;28;20484;-81
2022/12/01 06:44:12;;;;;;;104.50;47.40;;;6.00;99.90;;;;;;5095010;28;20044;-82
2022/12/01 06:46:39;;;;;;;97.47;46.07;;;6.00;99.90;;;;;;5077276;28;20044;-80
2022/12/01 06:49:05;;;;;;;104.83;48.27;;;5.90;99.90;;;;;;5093506;28;20352;-80
2022/12/01 06:51:33;;;;;;;85.80;42.30;;;5.90;99.90;;;;;;5095069;28;20048;-81
2022/12/01 06:53:59;;;;;;;76.82;40.05;;;5.90;99.90;;;;;;5093593;28;20510;-82
2022/12/01 06:56:24;;;;;;;86.53;41.87;;;5.90;99.90;;;;;;5094036;28;20036;-81
2022/12/01 06:58:51;;;;;;;80.57;40.03;;;5.80;99.90;;;;;;5093799;28;20274;-81
2022/12/01 07:01:17;;;;;;;85.43;43.03;;;5.80;99.90;;;;;;5076821;28;20040;-80
2022/12/01 07:03:47;;;;;;;80.15;40.67;;;5.70;99.90;;;;;;5092265;28;20066;-80
2022/12/01 07:06:13;;;;;;;84.82;40.97;;;5.70;99.90;;;;;;5094528;28;20051;-81
2022/12/01 07:08:39;;;;;;;76.40;39.07;;;5.70;99.90;;;;;;5094337;28;20120;-81
2022/12/01 07:11:07;;;;;;;75.27;39.53;;;5.70;99.90;;;;;;5094443;28;20065;-81
2022/12/01 07:13:33;;;;;;;76.07;38.92;;;5.70;99.90;;;;;;5094905;28;20047;-81
2022/12/01 07:16:03;;;;;;;88.35;41.42;;;5.60;99.90;;;;;;5094336;28;20108;-81
2022/12/01 07:18:29;;;;;;;70.45;39.13;;;5.60;99.90;;;;;;5093507;28;20108;-81
2022/12/01 07:21:00;;;;;;;72.30;39.80;;;5.60;99.90;;;;;;5093214;28;20054;-80
2022/12/01 07:23:26;;;;;;;72.25;39.10;;;5.50;99.90;;;;;;5094181;28;20484;-80
2022/12/01 07:26:06;;;;;;;67.67;36.90;;;5.50;99.90;;;;;;5093215;28;20126;-80
2022/12/01 07:28:32;;;;;;;75.38;38.55;;;5.50;99.90;;;;;;5093096;28;20518;-80
2022/12/01 07:31:05;;;;;;;70.55;36.70;;;;;;;;;;5094463;28;20144;-80
2022/12/01 07:33:31;;;;;;;67.95;37.50;;;;;;;;;;5094377;28;20052;-80
2022/12/01 07:35:58;;;;;;;76.28;39.90;;;5.40;99.90;;;;;;5076166;28;20050;-80
2022/12/01 07:38:24;;;;;;;66.40;35.75;;;5.40;99.90;;;;;;5092782;28;20036;-80
2022/12/01 07:40:49;;;;;;;76.33;38.97;;;5.40;99.90;;;;;;5094115;28;20066;-81
2022/12/01 07:43:15;;;;;;;75.27;38.57;;;5.50;99.90;;;;;;5093895;28;20085;-81
2022/12/01 07:45:40;;;;;;;73.80;37.07;;;5.50;99.90;;;;;;5093147;28;20488;-81
2022/12/01 07:48:06;;;;;;;79.77;38.77;;;5.40;99.90;;;;;;5093503;28;20480;-81
2022/12/01 07:50:32;;;;;;;75.00;37.37;;;5.40;99.90;;;;;;5093058;28;20044;-81
2022/12/01 07:52:58;;;;;;;74.50;37.53;;;5.40;99.90;;;;;;5093951;28;20131;-80
2022/12/01 07:55:23;;;;;;;74.00;38.13;;;5.40;99.90;;;;;;5109561;28;20043;-79
2022/12/01 07:57:49;;;;;;;78.37;40.87;;;5.30;99.90;;;;;;5093863;28;20093;-79
2022/12/01 08:00:15;;;;;;;79.43;37.83;;;5.30;99.90;;;;;;5093514;28;20051;-79
2022/12/01 08:02:41;;;;;;;78.87;40.10;;;;;;;;;;5092729;28;20056;-80
2022/12/01 08:05:07;;;;;;;69.22;36.72;;;;;;;;;;5093445;28;20278;-79
2022/12/01 08:07:33;;;;;;;76.97;41.13;;;;;;;;;;5092716;28;20138;-80
2022/12/01 08:09:59;;;;;;;72.20;38.40;;;;;;;;;;5093718;28;20040;-80
2022/12/01 08:12:25;;;;;;;66.53;35.53;;;;;;;;;;5093350;28;20051;-80
2022/12/01 08:14:51;;;;;;;70.25;37.85;;;;;;;;;;5092406;28;20091;-80
2022/12/01 08:17:17;;;;;;;71.28;38.22;;;5.30;99.90;;;;;;5109261;28;20048;-80
2022/12/01 08:19:43;;;;;;;70.67;37.80;;;;;;;;;;5092992;28;20040;-80
2022/12/01 08:22:09;;;;;;;73.00;37.92;;;;;;;;;;5093251;28;20396;-80
2022/12/01 08:24:35;;;;;;;65.13;35.25;;;;;;;;;;5093444;28;20048;-81
2022/12/01 08:27:01;;;;;;;71.10;37.67;;;;;;;;;;5091679;28;20509;-81
2022/12/01 08:29:27;;;;;;;63.17;34.25;;;;;;;;;;5093294;28;20476;-78
2022/12/01 08:31:53;;;;;;;68.30;35.25;;;;;;;;;;5094701;28;20092;-80
2022/12/01 08:34:19;;;;;;;66.15;35.40;;;5.20;99.90;;;;;;5103069;28;20043;-79
2022/12/01 08:36:45;;;;;;;67.90;36.33;;;5.20;99.90;;;;;;5083960;28;20032;-79
2022/12/01 08:39:11;;;;;;;65.07;35.17;;;;;;;;;;5097047;28;20510;-80
2022/12/01 08:41:36;;;;;;;64.72;33.10;;;5.10;99.90;;;;;;5077999;28;20450;-80
2022/12/01 08:44:02;;;;;;;72.13;35.97;;;5.10;99.90;;;;;;5093222;28;20093;-80
2022/12/01 08:46:31;;;;;;;66.97;35.17;;;5.10;99.90;;;;;;5092924;28;20605;-79
2022/12/01 08:48:57;;;;;;;68.15;33.50;;;5.20;99.90;;;;;;5092042;28;20416;-79
2022/12/01 08:51:23;;;;;;;76.03;34.93;;;5.20;99.90;;;;;;5092509;28;20044;-78
2022/12/01 08:53:49;;;;;;;56.83;31.52;;;5.20;99.90;;;;;;5093131;28;20076;-80
2022/12/01 08:56:21;;;;;;;60.00;33.70;;;5.20;99.90;;;;;;5092905;28;20145;-80
2022/12/01 08:58:47;;;;;;;56.47;30.35;;;5.30;99.90;;;;;;5092741;28;20507;-80
2022/12/01 09:01:14;;;;;;;53.50;29.27;;;5.30;99.90;;;;;;5092750;28;20040;-80
2022/12/01 09:03:41;;;;;;;51.65;28.20;;;5.30;99.90;;;;;;5092045;28;20087;-79
2022/12/01 09:06:16;;;;;;;53.90;29.40;;;5.30;99.90;;;;;;5093011;28;20052;-77
2022/12/01 09:08:42;;;;;;;57.45;30.88;;;5.40;99.90;;;;;;5092996;28;20044;-78
2022/12/01 09:11:14;;;;;;;46.90;27.27;;;5.40;99.90;;;;;;5074855;28;20044;-79
2022/12/01 09:13:41;;;;;;;43.63;25.42;;;5.50;99.90;;;;;;5092882;28;20052;-79
2022/12/01 09:16:15;;;;;;;42.72;25.75;;;5.50;99.90;;;;;;5093003;28;20484;-79
2022/12/01 09:18:42;;;;;;;51.05;26.83;;;5.50;99.90;;;;;;5093201;28;20427;-78
2022/12/01 09:21:10;;;;;;;38.92;22.45;;;5.50;99.90;;;;;;5091894;28;20040;-78
2022/12/01 09:23:36;;;;;;;38.72;22.65;;;5.60;99.90;;;;;;5092515;28;20059;-80
2022/12/01 09:26:02;;;;;;;37.63;22.90;;;5.70;99.90;;;;;;5092948;28;20044;-78
2022/12/01 09:28:28;;;;;;;34.50;21.40;;;5.70;99.90;;;;;;5092568;28;20040;-84
2022/12/01 09:30:53;;;;;;;35.90;20.63;;;5.70;99.90;;;;;;5093193;28;20488;-79
2022/12/01 09:33:19;;;;;;;35.70;21.67;;;5.80;99.90;;;;;;5078220;28;20047;-82
2022/12/01 09:35:44;;;;;;;30.43;19.20;;;5.90;99.90;;;;;;5096884;28;20090;-81
2022/12/01 09:38:10;;;;;;;30.83;19.43;;;5.90;99.90;;;;;;5096185;28;20056;-81
2022/12/01 09:40:39;;;;;;;30.57;18.90;;;6.00;99.90;;;;;;5096233;28;20139;-78
2022/12/01 09:43:14;;;;;;;30.08;18.50;;;6.00;99.90;;;;;;5092161;28;20040;-79
2022/12/01 09:45:44;;;;;;;26.73;17.93;;;6.10;99.90;;;;;;5087744;28;20135;-81
2022/12/01 09:48:43;;;;;;;25.75;18.08;;;6.10;99.90;;;;;;5089190;28;20273;-78
2022/12/01 09:51:14;;;;;;;28.70;18.40;;;6.20;99.90;;;;;;5086632;28;20483;-79
2022/12/01 09:53:41;;;;;;;24.20;17.48;;;6.20;99.90;;;;;;5089349;28;20063;-79
2022/12/01 09:56:18;;;;;;;26.02;18.50;;;6.20;99.90;;;;;;5089927;28;20508;-82
2022/12/01 09:58:44;;;;;;;28.95;17.10;;;6.30;99.90;;;;;;5089965;28;20048;-79
2022/12/01 10:01:16;;;;;;;23.88;17.17;;;6.30;99.90;;;;;;5090361;28;20044;-81
2022/12/01 10:03:48;;;;;;;26.45;16.75;;;6.30;99.90;;;;;;5088561;28;20056;-79
2022/12/01 10:06:42;;;;;;;24.75;16.65;;;6.40;99.90;;;;;;5090086;28;20115;-79
2022/12/01 10:09:23;;;;;;;25.60;18.05;;;6.50;99.90;;;;;;5089620;28;20642;-82
2022/12/01 10:11:53;;;;;;;23.73;16.90;;;6.50;99.90;;;;;;5089731;28;20044;-82
2022/12/01 10:14:20;;;;;;;25.50;16.73;;;6.50;99.90;;;;;;5087704;28;20105;-85
2022/12/01 10:17:02;;;;;;;25.38;17.67;;;6.50;99.90;;;;;;5087874;28;20063;-80
2022/12/01 10:20:05;;;;;;;24.38;16.10;;;6.60;99.90;;;;;;5089415;28;20048;-81
2022/12/01 10:22:50;;;;;;;26.45;16.17;;;6.60;99.90;;;;;;5087283;28;20438;-81
2022/12/01 10:25:45;;;;;;;24.63;15.35;;;6.60;99.90;;;;;;5090216;28;20059;-81
2022/12/01 10:28:16;;;;;;;25.65;15.80;;;6.60;99.90;;;;;;5087230;28;20059;-82
2022/12/01 10:30:50;;;;;;;21.30;15.25;;;6.60;99.90;;;;;;5090052;28;20130;-79
2022/12/01 10:33:25;;;;;;;22.65;16.20;;;6.60;99.90;;;;;;5095307;28;20047;-86
2022/12/01 10:35:52;;;;;;;21.85;16.10;;;6.70;99.90;;;;;;5094907;28;20092;-82
2022/12/01 10:38:35;;;;;;;21.60;15.75;;;6.70;99.90;;;;;;5094316;28;20054;-81
2022/12/01 10:41:03;;;;;;;22.15;16.15;;;6.70;99.90;;;;;;5094534;28;20431;-79
2022/12/01 10:43:36;;;;;;;24.73;15.30;;;6.80;99.90;;;;;;5094247;28;20442;-79
2022/12/01 10:46:18;;;;;;;22.48;16.10;;;6.80;99.90;;;;;;5095544;28;20278;-78
2022/12/01 10:48:52;;;;;;;25.75;17.17;;;6.80;99.90;;;;;;5094845;28;20109;-79
2022/12/01 10:51:19;;;;;;;23.58;16.75;;;6.80;99.90;;;;;;5095333;28;20040;-78
2022/12/01 10:53:45;;;;;;;23.98;16.13;;;6.80;99.90;;;;;;5094775;28;20079;-80
2022/12/01 10:56:19;;;;;;;21.10;15.57;;;6.80;99.90;;;;;;5095112;28;20497;-83
2022/12/01 10:59:01;;;;;;;21.17;14.87;;;6.80;99.90;;;;;;5093835;28;20113;-79
2022/12/01 11:01:33;;;;;;;24.05;15.07;;;7.00;99.90;;;;;;5094809;28;20310;-79
2022/12/01 11:04:19;;;;;;;20.38;13.70;;;6.90;99.90;;;;;;5094924;28;20112;-78
2022/12/01 11:06:49;;;;;;;21.90;14.10;;;7.00;99.90;;;;;;5093601;28;20128;-81
2022/12/01 11:09:19;;;;;;;18.93;13.80;;;7.00;99.90;;;;;;5094731;28;20638;-82
2022/12/01 11:11:52;;;;;;;21.37;14.30;;;7.10;99.90;;;;;;5093200;28;20313;-81
2022/12/01 11:14:21;;;;;;;19.38;12.82;;;7.00;99.90;;;;;;5094798;28;20274;-81
2022/12/01 11:16:49;;;;;;;16.98;12.10;;;6.90;99.90;;;;;;5094406;28;20073;-81
2022/12/01 11:19:31;;;;;;;18.58;13.27;;;6.90;99.90;;;;;;5094561;28;20140;-81
2022/12/01 11:21:59;;;;;;;22.23;14.20;;;7.00;99.90;;;;;;5094964;28;20199;-81
2022/12/01 11:24:43;;;;;;;17.70;12.90;;;7.00;99.90;;;;;;5094327;28;20519;-82
2022/12/01 11:27:20;;;;;;;20.67;14.23;;;7.00;99.90;;;;;;5094456;28;20286;-82
2022/12/01 11:29:49;;;;;;;18.25;13.20;;;7.00;99.90;;;;;;5094038;28;20051;-81
2022/12/01 11:32:28;;;;;;;16.77;12.93;;;7.10;99.90;;;;;;5094331;28;20082;-81
2022/12/01 11:35:12;;;;;;;20.10;13.73;;;7.10;99.90;;;;;;5094533;28;20273;-81
2022/12/01 11:37:44;;;;;;;16.08;12.00;;;7.10;99.90;;;;;;5094110;28;20660;-81
2022/12/01 11:40:20;;;;;;;19.97;13.20;;;7.20;99.90;;;;;;5094204;28;20127;-78
2022/12/01 11:43:02;;;;;;;20.83;13.93;;;7.20;99.90;;;;;;5094033;28;20274;-80
2022/12/01 11:45:38;;;;;;;18.37;12.43;;;7.30;99.90;;;;;;5094155;28;20126;-80
2022/12/01 11:48:19;;;;;;;19.10;13.30;;;7.30;99.90;;;;;;5093990;28;20282;-80
2022/12/01 11:51:14;;;;;;;17.83;12.63;;;7.40;99.90;;;;;;5093617;28;20302;-81
2022/12/01 11:53:42;;;;;;;18.73;13.80;;;7.50;99.90;;;;;;5093724;28;20293;-81
2022/12/01 11:56:19;;;;;;;19.60;12.67;;;7.60;99.90;;;;;;5093910;28;20282;-77
2022/12/01 11:58:47;;;;;;;18.98;13.30;;;7.50;99.90;;;;;;5093348;28;20814;-78
2022/12/01 12:01:21;;;;;;;18.97;13.67;;;7.60;99.90;;;;;;5093840;28;20044;-77
2022/12/01 12:04:00;;;;;;;17.63;12.40;;;7.50;99.90;;;;;;5093517;28;20355;-81
2022/12/01 12:06:40;;;;;;;20.20;13.23;;;7.60;99.90;;;;;;5092816;28;20285;-77
2022/12/01 12:09:44;;;;;;;17.57;12.00;;;7.50;99.90;;;;;;5093857;28;20278;-80
2022/12/01 12:12:13;;;;;;;19.80;13.73;;;7.60;99.90;;;;;;5092512;28;20289;-77
2022/12/01 12:14:46;;;;;;;18.47;13.23;;;7.50;99.90;;;;;;5093375;28;20372;-76
2022/12/01 12:17:33;;;;;;;16.10;12.00;;;7.70;99.90;;;;;;5093862;28;20278;-77
2022/12/01 12:20:22;;;;;;;21.33;13.23;;;7.60;99.90;;;;;;5092451;28;20770;-77
2022/12/01 12:23:24;;;;;;;19.10;13.17;;;7.60;99.90;;;;;;5093265;28;20603;-79
2022/12/01 12:26:08;;;;;;;19.93;13.70;;;7.60;99.90;;;;;;5093235;28;20815;-78
2022/12/01 12:28:41;;;;;;;19.27;13.50;;;7.60;99.90;;;;;;5092240;28;20774;-78
2022/12/01 12:31:47;;;;;;;19.00;13.77;;;7.60;99.90;;;;;;5093336;28;20298;-79
2022/12/01 12:34:39;;;;;;;20.20;14.07;;;7.60;99.90;;;;;;5092594;28;20325;-78
2022/12/01 12:37:10;;;;;;;20.87;14.23;;;7.50;99.90;;;;;;5093299;28;20278;-79
2022/12/01 12:39:53;;;;;;;17.50;12.87;;;7.50;99.90;;;;;;5093410;28;20289;-79
2022/12/01 12:42:41;;;;;;;18.47;13.20;;;7.40;99.90;;;;;;5093596;28;20768;-79
2022/12/01 12:45:44;;;;;;;18.67;12.73;;;7.40;99.90;;;;;;5093547;28;20282;-79
2022/12/01 12:48:23;;;;;;;19.97;12.53;;;7.40;99.90;;;;;;5093491;28;20282;-80
2022/12/01 12:50:55;;;;;;;20.53;14.67;;;7.30;99.90;;;;;;5083196;28;20316;-81
2022/12/01 12:53:24;;;;;;;16.90;12.13;;;7.30;99.90;;;;;;5086434;28;20774;-80
2022/12/01 12:55:53;;;;;;;19.53;13.57;;;7.30;99.90;;;;;;5080627;28;20865;-80
2022/12/01 12:58:24;;;;;;;20.07;14.03;;;7.30;99.90;;;;;;5090483;28;20347;-79
2022/12/01 13:01:13;;;;;;;19.37;13.47;;;7.30;99.90;;;;;;5092736;28;20278;-80